logo

United by the hobby
of model aircraft flying

Promoting safe
radio model flying

Sharing the experience
of RC flying

Dedicated to the sport of model aviation

Meeting
Venue

Third Monday Each Month
Crown Point Civic Center
101 S East Street
Crown Point, IN 46307

Read More

email:
[javascript protected email address]

View our events calendar

2019

Weather Conditions

Elev 730 ft    41.19°N  87.16°W

37.0 °F
160°
3 m/h
Wind Variable Wind from SSE

Current Conditions

Pressure 29.84 in
Visibility 10 miles
Clouds Overcast
Dew Point 30.9 °F
Humidity 78 %
Rainfall 0.00 in
 
METAR KVPZ 180456Z AUTO 16003KT 10SM OVC100 03/M01 A2984 RMK AO2 SLP112 T00281006

Forecast

INFORMATION PROVIDED BY THE INDIANA STATE FORECAST - NATIONAL WEATHER SERVICE
Sunrise & Sunset
November 17, 2019
6:42 AM

4:29 PM
High 47 | Low 34°F
November 18, 2019
6:44 AM

4:28 PM
High | Low °F
 

our gallery

View All